Time;durP1;ratioP1;P1;durP2;ratioP2;P2;SDS_P1;SDS_P2;PMS_P1;PMS_P2;Temp;Humidity;BMP_temperature;BMP_pressure;BME280_temperature;BME280_humidity;BME280_pressure;Samples;Min_cycle;Max_cycle;Signal;HPM_P1;HPM_P2
2022/08/21 00:01:45;;;;;;;0.10;0.10;;;;;;;12.13;92.48;101639.47;5025685;28;20044;-70
2022/08/21 00:04:11;;;;;;;0.10;0.10;;;;;;;12.11;92.76;101639.59;5025887;28;20038;-70
2022/08/21 00:06:37;;;;;;;0.00;0.00;;;;;;;12.03;92.97;101631.19;5019862;28;20072;-70
2022/08/21 00:09:04;;;;;;;0.10;0.10;;;;;;;12.13;92.78;101647.56;5020210;28;20104;-70
2022/08/21 00:11:29;;;;;;;0.00;0.00;;;;;;;12.10;92.94;101645.94;5018942;28;20037;-70
2022/08/21 00:13:55;;;;;;;0.00;0.00;;;;;;;12.11;94.11;101646.78;5020621;28;20026;-69
2022/08/21 00:16:20;;;;;;;0.00;0.00;;;;;;;12.09;94.77;101649.63;5023793;28;20033;-70
2022/08/21 00:18:45;;;;;;;0.00;0.00;;;;;;;12.06;94.24;101636.38;5020314;28;20030;-70
2022/08/21 00:21:12;;;;;;;0.10;0.10;;;;;;;12.15;93.79;101643.78;5023064;28;20029;-70
2022/08/21 00:23:38;;;;;;;0.10;0.10;;;;;;;12.09;93.37;101640.66;5021103;28;20562;-69
2022/08/21 00:26:04;;;;;;;0.00;0.00;;;;;;;12.04;93.65;101638.31;5022710;28;20029;-69
2022/08/21 00:28:30;;;;;;;0.00;0.00;;;;;;;12.03;93.93;101641.13;5020009;28;20403;-69
2022/08/21 00:30:56;;;;;;;0.03;0.03;;;;;;;12.00;94.16;101640.38;5020535;28;20099;-69
2022/08/21 00:33:22;;;;;;;0.00;0.00;;;;;;;12.03;94.33;101638.44;5023322;28;20480;-69
2022/08/21 00:35:47;;;;;;;0.10;0.10;;;;;;;12.07;94.33;101632.72;5018479;28;20037;-69
2022/08/21 00:38:14;;;;;;;0.05;0.05;;;;;;;12.08;93.80;101638.94;5019531;28;20518;-69
2022/08/21 00:40:45;;;;;;;0.00;0.00;;;;;;;12.04;93.39;101638.31;5024341;28;20036;-69
2022/08/21 00:43:13;;;;;;;0.10;0.10;;;;;;;12.00;93.49;101636.81;5022428;28;20391;-69
2022/08/21 00:45:38;;;;;;;0.10;0.10;;;;;;;12.01;93.55;101633.16;5022923;28;20080;-69
2022/08/21 00:48:04;;;;;;;0.00;0.00;;;;;;;12.03;93.06;101625.81;5023980;28;20041;-69
2022/08/21 00:50:32;;;;;;;0.08;0.08;;;;;;;12.00;92.91;101632.28;5026264;28;20500;-69
2022/08/21 00:52:59;;;;;;;0.03;0.03;;;;;;;11.98;93.30;101633.31;5020337;28;20033;-69
2022/08/21 00:55:24;;;;;;;0.10;0.10;;;;;;;11.96;93.33;101625.38;5021420;28;20663;-69
2022/08/21 00:57:52;;;;;;;0.10;0.00;;;;;;;11.94;93.04;101640.75;5025616;28;20136;-69
2022/08/21 01:00:22;;;;;;;0.08;0.08;;;;;;;11.96;92.96;101632.56;5023095;28;20033;-69
2022/08/21 01:02:47;;;;;;;0.00;0.00;;;;;;;11.93;92.72;101630.09;5021697;28;20044;-69
2022/08/21 01:05:13;;;;;;;0.10;0.10;;;;;;;11.91;92.67;101632.91;5023171;28;20033;-69
2022/08/21 01:07:39;;;;;;;0.05;0.05;;;;;;;11.88;92.62;101629.59;5024720;28;20357;-70
2022/08/21 01:10:06;;;;;;;0.00;0.00;;;;;;;11.82;92.91;101626.34;5022482;28;20272;-69
2022/08/21 01:12:32;;;;;;;0.00;0.00;;;;;;;11.78;93.54;101632.91;5023417;28;20136;-70
2022/08/21 01:14:58;;;;;;;0.10;0.10;;;;;;;11.75;93.31;101630.44;5023431;28;20064;-70
2022/08/21 01:17:24;;;;;;;0.10;0.10;;;;;;;11.59;93.98;101605.59;5025962;28;20329;-69
2022/08/21 01:19:50;;;;;;;0.10;0.10;;;;;;;11.73;93.90;101639.59;5025484;28;20033;-69
2022/08/21 01:22:15;;;;;;;0.00;0.00;;;;;;;11.70;93.72;101636.16;5026833;28;20223;-69
2022/08/21 01:24:40;;;;;;;0.05;0.05;;;;;;;11.68;94.06;101634.50;5017053;28;20034;-69
2022/08/21 01:27:06;;;;;;;0.10;0.10;;;;;;;11.66;93.81;101631.06;5017421;28;20424;-69
2022/08/21 01:29:44;;;;;;;0.00;0.00;;;;;;;11.68;94.35;101631.81;5023772;28;20447;-69
2022/08/21 01:32:13;;;;;;;0.00;0.00;;;;;;;11.67;94.93;101624.72;5013534;28;20025;-69
2022/08/21 01:34:42;;;;;;;0.00;0.00;;;;;;;11.58;94.36;101614.63;5023273;28;20486;-70
2022/08/21 01:37:08;;;;;;;0.00;0.00;;;;;;;11.62;94.17;101629.59;5017851;28;20036;-69
2022/08/21 01:39:34;;;;;;;0.10;0.10;;;;;;;11.62;94.26;101632.28;5025199;28;20156;-69
2022/08/21 01:41:59;;;;;;;0.10;0.10;;;;;;;11.67;94.46;101625.59;5023808;28;20029;-69
2022/08/21 01:44:25;;;;;;;0.00;0.00;;;;;;;11.74;94.15;101630.56;5024060;28;20109;-69
2022/08/21 01:46:51;;;;;;;0.10;0.10;;;;;;;11.74;94.16;101626.03;5025379;28;20069;-69
2022/08/21 01:49:17;;;;;;;0.00;0.00;;;;;;;11.75;93.66;101622.38;5025134;28;20029;-69
2022/08/21 01:51:42;;;;;;;0.10;0.10;;;;;;;11.75;92.88;101626.91;5018993;28;20505;-69
2022/08/21 01:54:08;;;;;;;0.10;0.10;;;;;;;11.75;92.56;101626.91;5024048;28;20032;-69
2022/08/21 01:56:46;;;;;;;0.00;0.00;;;;;;;11.72;91.79;101627.13;5023048;28;20025;-69
2022/08/21 01:59:12;;;;;;;0.00;0.00;;;;;;;11.68;92.15;101629.13;5024058;28;20056;-69
2022/08/21 02:01:39;;;;;;;0.10;0.10;;;;;;;11.63;92.33;101629.47;5026267;28;20383;-69
2022/08/21 02:04:05;;;;;;;0.10;0.00;;;;;;;11.60;92.62;101621.59;5018829;28;20037;-69
2022/08/21 02:06:30;;;;;;;0.00;0.00;;;;;;;11.43;93.11;101600.41;5023657;28;20545;-69
2022/08/21 02:08:55;;;;;;;0.00;0.00;;;;;;;11.50;93.37;101624.09;5021923;28;20104;-69
2022/08/21 02:11:21;;;;;;;0.00;0.00;;;;;;;11.50;94.13;101620.53;5024726;28;20033;-69
2022/08/21 02:13:46;;;;;;;0.10;0.10;;;;;;;11.47;94.11;101618.06;5015572;28;20464;-69
2022/08/21 02:16:12;;;;;;;0.10;0.10;;;;;;;11.43;94.43;101625.47;5023244;28;20029;-69
2022/08/21 02:18:37;;;;;;;0.00;0.00;;;;;;;11.35;94.63;101609.88;5017816;28;20044;-69
2022/08/21 02:21:04;;;;;;;0.10;0.10;;;;;;;11.36;96.09;101606.22;5021256;28;20457;-69
2022/08/21 02:23:29;;;;;;;0.10;0.10;;;;;;;11.37;95.40;101605.25;5021040;28;20484;-69
2022/08/21 02:25:56;;;;;;;0.00;0.00;;;;;;;11.34;95.56;101604.63;5021835;28;20036;-69
2022/08/21 02:28:22;;;;;;;0.00;0.00;;;;;;;11.33;96.90;101609.09;5022497;28;20354;-69
2022/08/21 02:30:48;;;;;;;0.03;0.03;;;;;;;11.35;97.59;101609.88;5021608;28;20080;-69
2022/08/21 02:33:14;;;;;;;0.03;0.03;;;;;;;11.25;97.17;101584.59;5018881;28;20043;-69
2022/08/21 02:35:43;;;;;;;0.10;0.10;;;;;;;11.40;96.53;101610.41;5026616;28;20140;-69
2022/08/21 02:38:11;;;;;;;0.08;0.08;;;;;;;11.38;95.72;101600.75;5026592;28;20029;-69
2022/08/21 02:40:38;;;;;;;0.00;0.00;;;;;;;11.34;95.18;101599.22;5022262;28;20231;-69
2022/08/21 02:43:05;;;;;;;0.10;0.10;;;;;;;11.35;95.70;101596.44;5028679;28;20056;-69
2022/08/21 02:45:30;;;;;;;0.00;0.00;;;;;;;11.25;95.07;101588.13;5025988;28;20032;-69
2022/08/21 02:48:01;;;;;;;0.00;0.00;;;;;;;11.26;94.66;101594.34;5024107;28;20053;-69
2022/08/21 02:50:30;;;;;;;0.00;0.00;;;;;;;11.20;94.84;101598.34;5023159;28;20471;-69
2022/08/21 02:52:56;;;;;;;0.00;0.00;;;;;;;11.12;94.85;101589.97;5023688;28;20029;-69
2022/08/21 02:55:23;;;;;;;0.03;0.03;;;;;;;11.19;95.32;101596.63;5024603;28;20083;-69
2022/08/21 02:57:48;;;;;;;0.10;0.10;;;;;;;11.21;94.60;101599.22;5023764;28;20034;-69
2022/08/21 03:00:15;;;;;;;0.10;0.10;;;;;;;11.24;94.52;101591.78;5024633;28;20353;-69
2022/08/21 03:02:40;;;;;;;0.00;0.00;;;;;;;11.20;94.34;101592.97;5021622;28;20056;-69
2022/08/21 03:05:07;;;;;;;0.10;0.10;;;;;;;11.13;94.07;101594.34;5023579;28;20120;-69
2022/08/21 03:07:33;;;;;;;0.10;0.10;;;;;;;11.09;94.38;101587.47;5023363;28;20336;-69
2022/08/21 03:09:58;;;;;;;0.10;0.10;;;;;;;11.06;94.48;101591.22;5025361;28;20075;-69
2022/08/21 03:12:24;;;;;;;0.03;0.03;;;;;;;11.09;94.50;101584.78;5024525;28;20426;-69
2022/08/21 03:14:49;;;;;;;0.10;0.10;;;;;;;11.08;94.18;101583.06;5022270;28;20033;-69
2022/08/21 03:17:14;;;;;;;0.00;0.00;;;;;;;11.05;94.11;101585.97;5028214;28;20475;-69
2022/08/21 03:19:40;;;;;;;0.05;0.05;;;;;;;10.99;93.78;101579.16;5025840;28;20537;-69
2022/08/21 03:22:05;;;;;;;0.00;0.00;;;;;;;10.94;93.97;101581.31;5023692;28;20067;-69
2022/08/21 03:24:31;;;;;;;0.10;0.10;;;;;;;10.89;93.77;101581.59;5022331;28;20029;-69
2022/08/21 03:26:56;;;;;;;0.10;0.10;;;;;;;10.85;93.90;101581.94;5022657;28;20040;-69
2022/08/21 03:29:22;;;;;;;0.00;0.00;;;;;;;10.85;94.25;101584.63;5025162;28;20108;-69
2022/08/21 03:31:47;;;;;;;0.00;0.00;;;;;;;10.77;94.83;101575.25;5020966;28;20036;-69
2022/08/21 03:34:12;;;;;;;0.00;0.00;;;;;;;10.70;95.89;101584.69;5019798;28;20381;-69
2022/08/21 03:36:38;;;;;;;0.00;0.00;;;;;;;10.69;97.94;101584.78;5023504;28;20069;-69
2022/08/21 03:39:03;;;;;;;0.10;0.10;;;;;;;10.68;98.54;101591.09;5021805;28;20034;-69
2022/08/21 03:41:29;;;;;;;0.10;0.10;;;;;;;10.73;99.50;101583.63;5023683;28;20518;-69
2022/08/21 03:43:54;;;;;;;0.08;0.08;;;;;;;10.77;100.00;101585.97;5018291;28;20474;-69
2022/08/21 03:46:20;;;;;;;0.00;0.00;;;;;;;10.74;98.01;101585.34;5024353;28;20060;-69
2022/08/21 03:48:45;;;;;;;0.05;0.05;;;;;;;10.76;97.76;101586.94;5024604;28;20037;-69
2022/08/21 03:51:10;;;;;;;0.10;0.10;;;;;;;10.75;96.95;101585.22;5018554;28;20060;-69
2022/08/21 03:53:36;;;;;;;0.00;0.00;;;;;;;10.71;96.73;101589.09;5023231;28;20131;-69
2022/08/21 03:56:01;;;;;;;0.10;0.10;;;;;;;10.59;97.62;101582.72;5022442;28;20231;-69
2022/08/21 03:58:28;;;;;;;0.00;0.00;;;;;;;10.52;99.20;101577.84;5023918;28;20514;-69
2022/08/21 04:00:56;;;;;;;0.00;0.00;;;;;;;10.35;98.58;101561.00;5023397;28;20029;-69
2022/08/21 04:03:22;;;;;;;0.00;0.00;;;;;;;10.47;97.84;101578.16;5021709;28;20029;-69
2022/08/21 04:05:47;;;;;;;0.10;0.10;;;;;;;10.49;99.06;101581.59;5021638;28;20032;-69
2022/08/21 04:08:14;;;;;;;0.00;0.00;;;;;;;10.53;100.00;101571.50;5024289;28;20037;-69
2022/08/21 04:10:40;;;;;;;0.00;0.00;;;;;;;10.60;100.00;101589.78;5020834;28;20541;-69
2022/08/21 04:13:06;;;;;;;0.10;0.10;;;;;;;10.58;99.63;101577.44;5021200;28;20148;-69
2022/08/21 04:15:32;;;;;;;0.10;0.10;;;;;;;10.52;98.50;101576.03;5019431;28;20030;-69
2022/08/21 04:17:58;;;;;;;0.03;0.03;;;;;;;10.50;98.34;101569.91;5023526;28;20029;-68
2022/08/21 04:20:24;;;;;;;0.10;0.10;;;;;;;10.48;98.06;101569.13;5020347;28;20562;-69
2022/08/21 04:22:50;;;;;;;0.10;0.10;;;;;;;10.44;97.98;101571.16;5019761;28;20076;-69
2022/08/21 04:25:18;;;;;;;0.10;0.10;;;;;;;10.39;98.94;101564.34;5020903;28;20108;-69
2022/08/21 04:27:43;;;;;;;0.00;0.00;;;;;;;10.44;98.19;101572.97;5021714;28;20033;-68
2022/08/21 04:30:09;;;;;;;0.10;0.10;;;;;;;10.40;97.52;101583.06;5025135;28;20026;-68
2022/08/21 04:32:36;;;;;;;0.08;0.08;;;;;;;10.31;97.40;101573.75;5024037;28;20104;-68
2022/08/21 04:35:06;;;;;;;0.08;0.08;;;;;;;10.34;97.34;101578.91;5023121;28;20067;-69
2022/08/21 04:37:31;;;;;;;0.10;0.10;;;;;;;10.32;98.55;101574.59;5023538;28;20032;-68
2022/08/21 04:39:58;;;;;;;0.00;0.00;;;;;;;10.35;99.35;101577.09;5027404;28;20025;-69
2022/08/21 04:42:27;;;;;;;0.10;0.10;;;;;;;10.41;98.40;101581.22;5021459;28;20530;-69
2022/08/21 04:44:53;;;;;;;0.00;0.00;;;;;;;10.48;98.19;101591.44;5020116;28;20689;-69
2022/08/21 04:47:18;;;;;;;0.00;0.00;;;;;;;10.57;97.54;101586.44;5022146;28;20068;-69
2022/08/21 04:49:45;;;;;;;0.10;0.10;;;;;;;10.63;96.83;101591.44;5022462;28;20021;-69
2022/08/21 04:52:11;;;;;;;0.10;0.10;;;;;;;10.63;95.72;101586.06;5023021;28;20029;-69
2022/08/21 04:54:37;;;;;;;0.00;0.00;;;;;;;10.59;95.96;101584.53;5018798;28;20080;-69
2022/08/21 04:57:07;;;;;;;0.00;0.00;;;;;;;10.57;96.08;101592.69;5024211;28;20029;-69
2022/08/21 04:59:38;;;;;;;0.00;0.00;;;;;;;10.64;98.64;101594.00;5022353;28;20040;-69
2022/08/21 05:02:05;;;;;;;0.10;0.10;;;;;;;10.73;100.00;101600.56;5016283;28;20344;-69
2022/08/21 05:04:33;;;;;;;0.10;0.10;;;;;;;10.80;100.00;101604.59;5016510;28;20476;-68
2022/08/21 05:07:01;;;;;;;0.10;0.10;;;;;;;10.95;100.00;101601.84;5022279;28;20171;-69
2022/08/21 05:09:27;;;;;;;0.10;0.10;;;;;;;11.03;100.00;101601.31;5023023;28;20029;-68
2022/08/21 05:11:52;;;;;;;0.10;0.10;;;;;;;10.98;100.00;101569.41;5019559;28;20032;-68
2022/08/21 05:14:19;;;;;;;0.10;0.10;;;;;;;11.30;100.00;101603.09;5020577;28;20148;-69
2022/08/21 05:16:44;;;;;;;0.10;0.10;;;;;;;11.39;100.00;101600.63;5021897;28;20261;-68
2022/08/21 05:19:10;;;;;;;0.00;0.00;;;;;;;11.48;100.00;101599.13;5022231;28;20033;-69
2022/08/21 05:21:37;;;;;;;0.00;0.00;;;;;;;11.55;100.00;101608.50;5020733;28;20029;-69
2022/08/21 05:24:03;;;;;;;0.10;0.10;;;;;;;11.54;100.00;101587.94;5019796;28;20368;-69
2022/08/21 05:26:29;;;;;;;0.10;0.10;;;;;;;11.74;100.00;101609.03;5019917;28;20033;-68
2022/08/21 05:28:54;;;;;;;0.10;0.10;;;;;;;11.88;100.00;101613.44;5023309;28;20469;-68
2022/08/21 05:31:19;;;;;;;0.10;0.10;;;;;;;11.96;100.00;101613.72;5022996;28;20033;-68
2022/08/21 05:33:45;;;;;;;0.10;0.10;;;;;;;11.88;100.00;101583.84;5021517;28;20080;-69
2022/08/21 05:36:10;;;;;;;0.10;0.10;;;;;;;12.21;100.00;101622.75;5023962;28;20032;-68
2022/08/21 05:38:35;;;;;;;0.10;0.10;;;;;;;12.27;100.00;101623.19;5020602;28;20029;-68
2022/08/21 05:41:01;;;;;;;0.08;0.08;;;;;;;12.34;100.00;101617.34;5023299;28;20117;-68
2022/08/21 05:43:26;;;;;;;0.10;0.10;;;;;;;12.39;100.00;101607.97;5016790;28;20510;-68
2022/08/21 05:45:51;;;;;;;0.10;0.10;;;;;;;12.53;100.00;101620.44;5022654;28;20033;-68
2022/08/21 05:48:20;;;;;;;0.10;0.10;;;;;;;12.68;100.00;101617.56;5023379;28;20036;-68
2022/08/21 05:50:46;;;;;;;0.10;0.10;;;;;;;12.81;100.00;101626.47;5020290;28;20474;-68
2022/08/21 05:53:13;;;;;;;0.00;0.00;;;;;;;12.81;100.00;101613.00;5019636;28;20047;-68
2022/08/21 05:55:39;;;;;;;0.10;0.10;;;;;;;13.05;100.00;101629.13;5018480;28;20514;-68
2022/08/21 05:58:05;;;;;;;0.10;0.10;;;;;;;13.13;100.00;101639.31;5021914;28;20076;-68
2022/08/21 06:00:30;;;;;;;0.10;0.10;;;;;;;13.18;100.00;101612.03;5020081;28;20105;-68
2022/08/21 06:02:56;;;;;;;0.10;0.10;;;;;;;13.49;100.00;101633.97;5012907;28;20083;-68
2022/08/21 06:05:22;;;;;;;0.10;0.10;;;;;;;13.56;100.00;101628.94;5017377;28;20079;-68
2022/08/21 06:07:47;;;;;;;0.10;0.10;;;;;;;13.74;100.00;101634.75;5024603;28;20056;-68
2022/08/21 06:10:12;;;;;;;0.10;0.10;;;;;;;13.85;100.00;101626.63;5020850;28;20150;-68
2022/08/21 06:12:38;;;;;;;0.08;0.08;;;;;;;14.03;100.00;101626.16;5024031;28;20075;-68
2022/08/21 06:15:03;;;;;;;0.10;0.10;;;;;;;14.10;100.00;101630.94;5023529;28;20025;-69
2022/08/21 06:17:29;;;;;;;0.10;0.10;;;;;;;14.13;100.00;101623.59;5026298;28;20029;-68
2022/08/21 06:19:54;;;;;;;0.03;0.03;;;;;;;14.27;100.00;101630.56;5023135;28;20459;-69
2022/08/21 06:22:20;;;;;;;0.10;0.10;;;;;;;14.34;100.00;101632.66;5025804;28;20558;-68
2022/08/21 06:24:46;;;;;;;0.13;0.13;;;;;;;14.47;100.00;101631.63;5020219;28;20029;-68
2022/08/21 06:27:11;;;;;;;0.10;0.10;;;;;;;14.54;100.00;101631.03;5026836;28;20053;-68
2022/08/21 06:29:37;;;;;;;0.03;0.03;;;;;;;14.72;100.00;101635.03;5022976;28;20044;-68
2022/08/21 06:32:03;;;;;;;0.10;0.10;;;;;;;14.89;100.00;101604.78;5023529;28;20029;-68
2022/08/21 06:34:29;;;;;;;0.10;0.10;;;;;;;15.13;100.00;101628.88;5021209;28;20037;-69
2022/08/21 06:36:54;;;;;;;0.10;0.10;;;;;;;15.22;100.00;101629.94;5027112;28;20037;-69
2022/08/21 06:39:19;;;;;;;0.10;0.10;;;;;;;15.36;99.00;101623.31;5026721;28;20104;-69
2022/08/21 06:41:45;;;;;;;0.10;0.10;;;;;;;15.55;100.00;101621.75;5026728;28;20040;-69
2022/08/21 06:44:10;;;;;;;0.10;0.10;;;;;;;15.71;97.91;101626.69;5025181;28;20061;-69
2022/08/21 06:46:36;;;;;;;0.10;0.10;;;;;;;15.91;96.82;101616.00;5027588;28;20049;-69
2022/08/21 06:49:01;;;;;;;0.05;0.05;;;;;;;16.07;96.00;101618.19;5025640;28;20037;-68
2022/08/21 06:51:27;;;;;;;0.10;0.10;;;;;;;16.14;95.25;101624.78;5020315;28;20029;-69
2022/08/21 06:53:52;;;;;;;0.10;0.10;;;;;;;16.25;94.53;101624.66;5024040;28;20056;-70
2022/08/21 06:56:18;;;;;;;0.00;0.00;;;;;;;16.41;94.74;101613.31;5025900;28;20033;-69
2022/08/21 06:58:44;;;;;;;0.10;0.10;;;;;;;16.43;93.92;101619.44;5022302;28;20044;-68
2022/08/21 07:01:09;;;;;;;0.00;0.00;;;;;;;16.60;92.99;101626.03;5022911;28;20053;-69
2022/08/21 07:03:40;;;;;;;0.00;0.00;;;;;;;16.75;91.96;101631.03;5023774;28;20072;-69
2022/08/21 07:06:07;;;;;;;0.10;0.10;;;;;;;16.77;92.85;101631.75;5019759;28;20075;-69
2022/08/21 07:08:32;;;;;;;0.00;0.00;;;;;;;16.89;91.86;101630.66;5026153;28;20025;-70
2022/08/21 07:10:59;;;;;;;0.05;0.05;;;;;;;16.94;93.46;101627.50;5029192;28;20040;-68
2022/08/21 07:13:25;;;;;;;0.00;0.00;;;;;;;17.09;91.83;101622.53;5018754;28;20425;-69
2022/08/21 07:15:50;;;;;;;0.08;0.08;;;;;;;17.14;91.40;101619.38;5022520;28;20033;-69
2022/08/21 07:18:15;;;;;;;0.00;0.00;;;;;;;17.19;92.16;101623.41;5025436;28;20452;-69
2022/08/21 07:20:41;;;;;;;0.00;0.00;;;;;;;17.31;91.85;101618.66;5023908;28;20541;-70
2022/08/21 07:23:23;;;;;;;0.00;0.00;;;;;;;17.49;89.63;101621.47;5018109;28;20073;-69
2022/08/21 07:25:48;;;;;;;0.08;0.08;;;;;;;17.67;89.02;101613.44;5018496;28;20026;-69
2022/08/21 07:28:13;;;;;;;0.10;0.10;;;;;;;17.84;88.30;101616.41;5025804;28;20039;-68
2022/08/21 07:30:39;;;;;;;0.10;0.10;;;;;;;17.92;88.53;101618.38;5020263;28;20040;-69
2022/08/21 07:33:04;;;;;;;0.00;0.00;;;;;;;17.82;88.91;101618.41;5025157;28;20045;-71
2022/08/21 07:35:31;;;;;;;0.00;0.00;;;;;;;17.92;88.47;101602.06;5023989;28;20154;-69
2022/08/21 07:37:57;;;;;;;0.10;0.10;;;;;;;18.29;87.83;101618.34;5027091;28;20051;-69
2022/08/21 07:40:22;;;;;;;0.03;0.03;;;;;;;18.47;87.17;101622.13;5022874;28;20029;-69
2022/08/21 07:42:51;;;;;;;0.00;0.00;;;;;;;18.71;86.31;101618.78;5021091;28;20036;-68
2022/08/21 07:45:18;;;;;;;0.10;0.10;;;;;;;18.86;86.23;101624.56;5024837;28;20026;-68
2022/08/21 07:47:43;;;;;;;0.08;0.08;;;;;;;18.90;85.27;101620.53;5025859;28;20029;-71
2022/08/21 07:50:12;;;;;;;0.00;0.00;;;;;;;18.96;86.86;101619.06;5034140;28;20033;-74
2022/08/21 07:52:39;;;;;;;0.00;0.00;;;;;;;18.67;84.14;101615.53;5016678;28;20120;-72
2022/08/21 07:55:05;;;;;;;0.10;0.10;;;;;;;18.82;85.37;101621.31;5024989;28;20025;-69
2022/08/21 07:57:30;;;;;;;0.03;0.03;;;;;;;19.06;84.21;101610.84;5024325;28;20025;-70
2022/08/21 07:59:55;;;;;;;0.00;0.00;;;;;;;18.85;84.01;101614.69;5024596;28;20025;-71
2022/08/21 08:02:26;;;;;;;0.00;0.00;;;;;;;18.85;86.31;101618.28;5019672;28;20030;-72
2022/08/21 08:04:51;;;;;;;0.00;0.00;;;;;;;18.96;84.98;101617.22;5019106;28;20026;-72
2022/08/21 08:07:17;;;;;;;0.00;0.00;;;;;;;19.08;84.15;101617.84;5025521;28;20056;-71
2022/08/21 08:09:43;;;;;;;0.00;0.00;;;;;;;19.32;83.56;101621.75;5026861;28;20445;-72
2022/08/21 08:12:08;;;;;;;0.00;0.00;;;;;;;18.94;83.24;101613.75;5031644;28;20032;-71
2022/08/21 08:14:33;;;;;;;0.08;0.08;;;;;;;19.20;82.90;101610.28;5020508;28;20025;-70
2022/08/21 08:16:59;;;;;;;0.10;0.10;;;;;;;19.23;82.46;101618.13;5017483;28;20383;-69
2022/08/21 08:19:24;;;;;;;0.00;0.00;;;;;;;19.00;83.75;101596.84;5020113;28;20036;-72
2022/08/21 08:21:49;;;;;;;0.00;0.00;;;;;;;19.28;84.33;101618.50;5020491;28;20033;-71
2022/08/21 08:24:15;;;;;;;0.00;0.00;;;;;;;19.46;83.61;101610.31;5020496;28;20022;-70
2022/08/21 08:26:40;;;;;;;0.00;0.00;;;;;;;19.66;82.05;101612.81;5023787;28;20045;-72
2022/08/21 08:29:05;;;;;;;0.10;0.10;;;;;;;19.88;81.01;101616.03;5026338;28;20025;-77
2022/08/21 08:31:31;;;;;;;0.00;0.00;;;;;;;19.46;81.75;101612.16;5022861;28;20490;-73
2022/08/21 08:33:56;;;;;;;0.00;0.00;;;;;;;19.49;82.89;101606.41;5015436;28;20036;-70
2022/08/21 08:36:31;;;;;;;0.10;0.10;;;;;;;19.69;81.80;101612.50;5021622;28;20029;-72
2022/08/21 08:38:57;;;;;;;0.00;0.00;;;;;;;19.97;80.49;101603.28;5019084;28;20086;-72
2022/08/21 08:41:23;;;;;;;0.00;0.00;;;;;;;20.15;80.43;101603.19;5018301;28;20029;-72
2022/08/21 08:43:59;;;;;;;0.10;0.10;;;;;;;19.90;79.66;101592.19;5020548;28;20420;-72
2022/08/21 08:46:43;;;;;;;0.08;0.08;;;;;;;20.18;80.83;101600.16;5016975;28;20663;-73
2022/08/21 08:49:27;;;;;;;0.00;0.00;;;;;;;20.33;80.28;101598.50;5011011;28;20033;-72
2022/08/21 08:52:00;;;;;;;0.00;0.00;;;;;;;20.24;78.23;101599.50;5020236;28;20354;-74
2022/08/21 08:54:31;;;;;;;0.00;0.00;;;;;;;20.32;78.95;101574.97;5018744;28;20132;-72
2022/08/21 08:56:58;;;;;;;0.03;0.03;;;;;;;20.63;78.01;101592.63;5013806;28;20384;-71
2022/08/21 08:59:36;;;;;;;0.00;0.00;;;;;;;21.07;77.43;101583.28;5016003;28;20373;-73
2022/08/21 09:02:01;;;;;;;0.00;0.00;;;;;;;21.20;75.71;101594.53;5022235;28;20455;-72
2022/08/21 09:04:28;;;;;;;0.00;0.00;;;;;;;20.89;75.63;101554.28;5020323;28;20029;-74
2022/08/21 09:07:15;;;;;;;0.00;0.00;;;;;;;21.15;75.31;101577.81;5017237;28;20025;-75
2022/08/21 09:09:52;;;;;;;0.00;0.00;;;;;;;21.42;73.13;101576.59;5018148;28;20045;-74
2022/08/21 09:12:35;;;;;;;0.00;0.00;;;;;;;21.72;73.21;101571.41;5018179;28;20025;-73
2022/08/21 09:15:16;;;;;;;0.00;0.00;;;;;;;21.85;70.83;101556.34;5017643;28;20765;-74
2022/08/21 09:17:56;;;;;;;0.00;0.00;;;;;;;21.94;69.92;101574.44;5023559;28;20029;-73
2022/08/21 09:20:43;;;;;;;0.00;0.00;;;;;;;22.24;69.06;101579.25;5020728;28;20036;-72
2022/08/21 09:23:22;;;;;;;0.00;0.00;;;;;;;21.97;69.62;101573.22;5019676;28;20040;-74
2022/08/21 09:26:11;;;;;;;0.10;0.10;;;;;;;21.72;67.28;101573.31;5022008;28;20548;-75
2022/08/21 09:28:37;;;;;;;0.00;0.00;;;;;;;22.05;69.41;101567.72;5020403;28;20040;-73
2022/08/21 09:31:08;;;;;;;0.00;0.00;;;;;;;22.26;68.10;101568.97;5018486;28;20037;-75
2022/08/21 09:33:33;;;;;;;0.00;0.00;;;;;;;22.66;67.10;101566.19;5021750;28;20032;-73
2022/08/21 09:35:59;;;;;;;0.00;0.00;;;;;;;22.66;65.07;101567.03;5022415;28;20037;-73
2022/08/21 09:38:31;;;;;;;0.00;0.00;;;;;;;22.57;65.23;101571.72;5021804;28;20029;-74
2022/08/21 09:41:06;;;;;;;0.00;0.00;;;;;;;22.85;64.40;101575.81;5022767;28;20033;-73
2022/08/21 09:43:32;;;;;;;0.00;0.00;;;;;;;22.80;61.01;101575.50;5027979;28;20052;-73
2022/08/21 09:46:19;;;;;;;0.00;0.00;;;;;;;22.41;63.16;101578.09;5024488;28;20037;-72
2022/08/21 09:48:50;;;;;;;0.00;0.00;;;;;;;22.00;62.98;101572.84;5017264;28;20032;-73
2022/08/21 09:51:24;;;;;;;0.00;0.00;;;;;;;21.71;65.14;101558.81;5023476;28;20033;-73
2022/08/21 09:54:16;;;;;;;0.00;0.00;;;;;;;21.96;66.29;101577.84;5022700;28;20072;-71
2022/08/21 09:59:55;;;;;;;0.00;0.00;;;;;;;21.72;66.30;101571.41;5015504;28;20049;-74
2022/08/21 10:02:26;;;;;;;0.00;0.00;;;;;;;21.95;65.85;101573.41;5009869;28;20037;-72
2022/08/21 10:04:59;;;;;;;0.00;0.00;;;;;;;22.55;64.66;101578.41;5015223;28;20036;-72
2022/08/21 10:07:27;;;;;;;0.03;0.03;;;;;;;22.41;63.09;101569.06;5012651;28;20120;-74
2022/08/21 10:10:06;;;;;;;0.00;0.00;;;;;;;22.39;63.55;101554.72;5018327;28;20033;-73
2022/08/21 10:12:55;;;;;;;0.00;0.00;;;;;;;22.86;62.35;101575.59;5013673;28;20033;-72
2022/08/21 10:15:41;;;;;;;0.10;0.10;;;;;;;23.35;61.20;101568.88;5023782;28;20025;-73
2022/08/21 10:18:17;;;;;;;0.00;0.00;;;;;;;23.85;60.23;101568.31;5019863;28;20033;-71
2022/08/21 10:20:58;;;;;;;0.00;0.00;;;;;;;23.66;60.46;101565.13;5017199;28;20036;-73
2022/08/21 10:23:29;;;;;;;0.00;0.00;;;;;;;23.41;62.12;101575.47;5017611;28;20040;-73
2022/08/21 10:26:02;;;;;;;0.00;0.00;;;;;;;23.60;61.66;101568.59;5020242;28;20493;-72
2022/08/21 10:29:09;;;;;;;0.00;0.00;;;;;;;23.94;59.32;101571.81;5018047;28;20060;-73
2022/08/21 10:32:04;;;;;;;0.00;0.00;;;;;;;23.93;57.94;101568.22;5018549;28;20033;-74
2022/08/21 10:35:14;;;;;;;0.00;0.00;;;;;;;24.05;57.31;101568.63;5018077;28;20379;-72
2022/08/21 10:37:46;;;;;;;0.00;0.00;;;;;;;24.20;56.60;101568.59;5014513;28;20037;-72
2022/08/21 10:40:21;;;;;;;0.00;0.00;;;;;;;24.66;56.35;101559.13;5020610;28;20021;-71
2022/08/21 10:43:22;;;;;;;0.00;0.00;;;;;;;24.59;55.36;101552.75;5016194;28;20495;-73
2022/08/21 10:46:15;;;;;;;0.00;0.00;;;;;;;24.62;55.21;101563.34;5015640;28;20075;-70
2022/08/21 10:48:50;;;;;;;0.00;0.00;;;;;;;24.75;54.57;101562.66;5021152;28;20030;-71
2022/08/21 10:51:24;;;;;;;0.00;0.00;;;;;;;25.09;54.43;101558.28;5010638;28;20026;-72
2022/08/21 10:53:58;;;;;;;0.00;0.00;;;;;;;25.50;52.42;101553.97;5018823;28;20061;-71
2022/08/21 10:56:24;;;;;;;0.00;0.00;;;;;;;26.11;50.97;101560.63;5020368;28;20057;-71
2022/08/21 10:59:11;;;;;;;0.00;0.00;;;;;;;26.72;46.70;101574.56;5015853;28;20503;-72
2022/08/21 11:01:45;;;;;;;0.00;0.00;;;;;;;26.50;48.67;101561.81;5014904;28;20060;-74
2022/08/21 11:04:21;;;;;;;0.00;0.00;;;;;;;25.80;48.58;101539.94;5015452;28;20030;-74
2022/08/21 11:06:53;;;;;;;0.00;0.00;;;;;;;24.90;52.39;101554.31;5015261;28;20053;-73
2022/08/21 11:09:22;;;;;;;0.00;0.00;;;;;;;24.88;52.14;101552.81;5015637;28;20025;-72
2022/08/21 11:11:54;;;;;;;0.00;0.00;;;;;;;24.98;51.48;101550.59;5017197;28;20033;-75
2022/08/21 11:14:41;;;;;;;0.00;0.00;;;;;;;25.79;50.37;101554.75;5017351;28;20033;-75
2022/08/21 11:17:12;;;;;;;0.00;0.00;;;;;;;26.54;47.78;101550.38;5015162;28;20037;-75
2022/08/21 11:20:08;;;;;;;0.00;0.00;;;;;;;26.43;48.16;101549.09;5018180;28;20855;-75
2022/08/21 11:22:42;;;;;;;0.00;0.00;;;;;;;26.60;47.61;101552.31;5015591;28;20029;-75
2022/08/21 11:25:10;;;;;;;0.00;0.00;;;;;;;27.38;46.23;101548.94;5016301;28;20021;-73
2022/08/21 11:27:42;;;;;;;0.00;0.00;;;;;;;27.05;47.42;101551.72;5014443;28;20496;-73
2022/08/21 11:30:08;;;;;;;0.00;0.00;;;;;;;27.51;44.93;101528.78;5015562;28;20036;-72
2022/08/21 11:33:11;;;;;;;0.00;0.00;;;;;;;26.17;44.75;101547.97;5015819;28;20863;-72
2022/08/21 11:36:16;;;;;;;0.00;0.00;;;;;;;26.09;47.88;101539.88;5013995;28;20026;-73